createdAt,value
2022-12-04T00:02:17.104Z,96656.47
2022-12-04T00:04:43.536Z,96659.13
2022-12-04T00:07:09.938Z,96660.81
2022-12-04T00:09:36.504Z,96654.31
2022-12-04T00:12:02.953Z,96652.56
2022-12-04T00:14:29.374Z,96651.91
2022-12-04T00:16:56.839Z,96647.16
2022-12-04T00:19:23.396Z,96658.66
2022-12-04T00:21:50.794Z,96659.63
2022-12-04T00:24:17.167Z,96651.00
2022-12-04T00:26:43.507Z,96653.16
2022-12-04T00:29:09.984Z,96657.97
2022-12-04T00:31:36.350Z,96645.53
2022-12-04T00:34:07.749Z,96654.66
2022-12-04T00:36:34.740Z,96649.22
2022-12-04T00:39:01.204Z,96645.56
2022-12-04T00:41:28.561Z,96645.59
2022-12-04T00:43:55.013Z,96643.34
2022-12-04T00:46:22.092Z,96635.16
2022-12-04T00:48:48.493Z,96635.13
2022-12-04T00:51:16.214Z,96639.72
2022-12-04T00:53:43.005Z,96636.28
2022-12-04T00:56:10.970Z,96637.50
2022-12-04T00:58:37.382Z,96638.31
2022-12-04T01:01:05.220Z,96636.03
2022-12-04T01:03:31.916Z,96626.91
2022-12-04T01:05:58.894Z,96625.59
2022-12-04T01:08:27.671Z,96624.25
2022-12-04T01:10:54.075Z,96629.28
2022-12-04T01:13:20.570Z,96625.91
2022-12-04T01:15:47.490Z,96633.69
2022-12-04T01:18:14.448Z,96631.28
2022-12-04T01:20:41.022Z,96629.06
2022-12-04T01:23:07.340Z,96630.59
2022-12-04T01:25:33.673Z,96631.53
2022-12-04T01:28:00.089Z,96630.38
2022-12-04T01:30:26.450Z,96625.41
2022-12-04T01:32:52.750Z,96612.44
2022-12-04T01:35:20.127Z,96614.09
2022-12-04T01:37:46.518Z,96614.50
2022-12-04T01:40:14.013Z,96609.44
2022-12-04T01:42:42.377Z,96617.19
2022-12-04T01:45:27.480Z,96607.91
2022-12-04T01:47:55.903Z,96602.09
2022-12-04T01:50:22.465Z,96618.97
2022-12-04T01:52:48.966Z,96610.09
2022-12-04T01:55:18.519Z,96614.22
2022-12-04T01:57:46.059Z,96605.34
2022-12-04T02:00:14.025Z,96595.50
2022-12-04T02:02:45.872Z,96597.09
2022-12-04T02:05:13.656Z,96602.53
2022-12-04T02:07:41.040Z,96608.00
2022-12-04T02:10:08.901Z,96604.91
2022-12-04T02:12:41.620Z,96598.66
2022-12-04T02:15:17.054Z,96596.75
2022-12-04T02:17:49.608Z,96596.19
2022-12-04T02:20:17.920Z,96594.75
2022-12-04T02:22:47.015Z,96601.34
2022-12-04T02:25:31.908Z,96614.66
2022-12-04T02:28:08.007Z,96612.44
2022-12-04T02:30:38.964Z,96611.38
2022-12-04T02:33:18.516Z,96622.19
2022-12-04T02:35:51.868Z,96624.97
2022-12-04T02:38:22.623Z,96626.59
2022-12-04T02:40:58.884Z,96626.22
2022-12-04T02:43:30.201Z,96620.47
2022-12-04T02:46:00.444Z,96619.47
2022-12-04T02:48:29.461Z,96606.75
2022-12-04T02:50:59.500Z,96605.19
2022-12-04T02:53:30.905Z,96605.53
2022-12-04T02:56:00.164Z,96613.47
2022-12-04T02:58:33.939Z,96605.44
2022-12-04T03:01:02.602Z,96603.66
2022-12-04T03:03:30.832Z,96605.88
2022-12-04T03:06:06.049Z,96606.44
2022-12-04T03:08:39.269Z,96605.34
2022-12-04T03:11:05.995Z,96606.50
2022-12-04T03:13:36.046Z,96605.13
2022-12-04T03:16:23.960Z,96585.16
2022-12-04T03:18:56.355Z,96584.78
2022-12-04T03:21:24.964Z,96582.03
2022-12-04T03:24:11.516Z,96589.66
2022-12-04T03:26:41.863Z,96593.47
2022-12-04T03:29:11.942Z,96584.88
2022-12-04T03:31:38.284Z,96589.44
2022-12-04T03:34:07.172Z,96576.16
2022-12-04T03:36:37.637Z,96576.69
2022-12-04T03:39:11.704Z,96570.75
2022-12-04T03:41:49.977Z,96559.84
2022-12-04T03:44:26.243Z,96558.28
2022-12-04T03:46:56.106Z,96560.19
2022-12-04T03:49:26.274Z,96572.25
2022-12-04T03:52:00.449Z,96563.97
2022-12-04T03:54:35.178Z,96555.38
2022-12-04T03:57:29.928Z,96550.75
2022-12-04T04:00:03.512Z,96539.22
2022-12-04T04:02:33.341Z,96539.47
2022-12-04T04:05:03.083Z,96540.44
2022-12-04T04:07:36.073Z,96544.94
2022-12-04T04:10:05.889Z,96543.31
2022-12-04T04:12:36.062Z,96535.13
2022-12-04T04:15:24.822Z,96532.22
2022-12-04T04:18:10.252Z,96535.06
2022-12-04T04:21:09.823Z,96534.00
2022-12-04T04:23:59.319Z,96529.13
2022-12-04T04:26:26.876Z,96531.28
2022-12-04T04:28:53.228Z,96531.03
2022-12-04T04:31:28.612Z,96529.94
2022-12-04T04:34:32.600Z,96531.72
2022-12-04T04:37:08.112Z,96533.19
2022-12-04T04:39:38.425Z,96527.78
2022-12-04T04:42:09.308Z,96525.66
2022-12-04T04:44:41.604Z,96525.53
2022-12-04T04:47:12.170Z,96525.19
2022-12-04T04:49:39.795Z,96524.84
2022-12-04T04:52:06.544Z,96524.81
2022-12-04T04:54:33.912Z,96531.88
2022-12-04T04:57:02.320Z,96535.66
2022-12-04T04:59:28.657Z,96528.44
2022-12-04T05:01:55.158Z,96536.81
2022-12-04T05:04:21.608Z,96541.72
2022-12-04T05:06:48.959Z,96537.38
2022-12-04T05:09:15.311Z,96543.03
2022-12-04T05:11:41.743Z,96541.72
2022-12-04T05:14:09.770Z,96543.59
2022-12-04T05:16:36.374Z,96538.56
2022-12-04T05:19:22.670Z,96544.59
2022-12-04T05:21:49.000Z,96563.53
2022-12-04T05:24:15.331Z,96562.59
2022-12-04T05:26:41.669Z,96555.47
2022-12-04T05:29:08.284Z,96561.69
2022-12-04T05:31:34.676Z,96562.22
2022-12-04T05:34:01.144Z,96557.31
2022-12-04T05:36:27.458Z,96544.47
2022-12-04T05:38:53.904Z,96548.59
2022-12-04T05:41:21.390Z,96554.63
2022-12-04T05:43:47.781Z,96550.13
2022-12-04T05:46:14.241Z,96555.47
2022-12-04T05:48:40.654Z,96549.53
2022-12-04T05:51:07.891Z,96551.84
2022-12-04T05:53:34.328Z,96561.91
2022-12-04T05:56:01.601Z,96558.34
2022-12-04T05:58:28.284Z,96558.97
2022-12-04T06:00:54.706Z,96564.13
2022-12-04T06:03:21.590Z,96567.41
2022-12-04T06:05:48.055Z,96568.38
2022-12-04T06:08:14.719Z,96570.50
2022-12-04T06:10:41.311Z,96571.28
2022-12-04T06:13:08.044Z,96586.91
2022-12-04T06:15:40.594Z,96583.25
2022-12-04T06:18:08.251Z,96581.03
2022-12-04T06:20:35.077Z,96580.78
2022-12-04T06:23:01.454Z,96580.19
2022-12-04T06:25:27.775Z,96586.78
2022-12-04T06:27:54.127Z,96586.38
2022-12-04T06:30:21.549Z,96587.09
2022-12-04T06:32:47.919Z,96586.00
2022-12-04T06:35:14.294Z,96570.28
2022-12-04T06:37:40.656Z,96582.16
2022-12-04T06:40:07.285Z,96570.75
2022-12-04T06:42:33.696Z,96577.97
2022-12-04T06:45:00.045Z,96584.13
2022-12-04T06:47:26.428Z,96579.44
2022-12-04T06:49:53.252Z,96576.25
2022-12-04T06:52:19.808Z,96577.13
2022-12-04T06:54:46.158Z,96573.88
2022-12-04T06:57:12.514Z,96574.59
2022-12-04T06:59:39.189Z,96575.56
2022-12-04T07:02:06.745Z,96575.13
2022-12-04T07:04:33.158Z,96578.19
2022-12-04T07:06:59.487Z,96575.34
2022-12-04T07:09:26.092Z,96572.75
2022-12-04T07:11:54.868Z,96571.75
2022-12-04T07:14:21.211Z,96565.44
2022-12-04T07:16:47.626Z,96564.47
2022-12-04T07:19:14.370Z,96559.47
2022-12-04T07:21:41.263Z,96570.88
2022-12-04T07:24:07.710Z,96560.44
2022-12-04T07:26:42.095Z,96573.28
2022-12-04T07:29:10.332Z,96562.72
2022-12-04T07:31:38.020Z,96575.53
2022-12-04T07:34:06.576Z,96571.41
2022-12-04T07:36:34.022Z,96557.22
2022-12-04T07:39:00.423Z,96557.59
2022-12-04T07:41:26.732Z,96553.91
2022-12-04T07:43:53.683Z,96549.69
2022-12-04T07:46:22.275Z,96552.47
2022-12-04T07:48:48.808Z,96558.63
2022-12-04T07:51:16.930Z,96546.06
2022-12-04T07:53:44.583Z,96558.72
2022-12-04T07:56:11.764Z,96556.94
2022-12-04T07:58:38.610Z,96558.91
2022-12-04T08:01:07.225Z,96562.75
2022-12-04T08:03:34.734Z,96561.91
2022-12-04T08:06:01.926Z,96553.97
2022-12-04T08:08:28.512Z,96553.16
2022-12-04T08:10:54.855Z,96545.69
2022-12-04T08:13:21.710Z,96544.47
2022-12-04T08:15:48.101Z,96538.72
2022-12-04T08:18:14.604Z,96538.34
2022-12-04T08:20:48.987Z,96550.78
2022-12-04T08:23:15.323Z,96554.31
2022-12-04T08:25:45.722Z,96554.88
2022-12-04T08:28:12.038Z,96557.19
2022-12-04T08:30:38.402Z,96562.63
2022-12-04T08:33:05.850Z,96564.75
2022-12-04T08:35:32.152Z,96562.38
2022-12-04T08:37:58.493Z,96567.13
2022-12-04T08:40:33.245Z,96573.47
2022-12-04T08:42:59.758Z,96561.03
2022-12-04T08:45:26.363Z,96569.66
2022-12-04T08:47:52.827Z,96560.78
2022-12-04T08:50:19.166Z,96565.44
2022-12-04T08:52:47.551Z,96562.28
2022-12-04T08:55:14.947Z,96566.78
2022-12-04T08:57:41.387Z,96578.03
2022-12-04T09:00:09.950Z,96571.84
2022-12-04T09:02:37.311Z,96576.53
2022-12-04T09:05:17.856Z,96580.63
2022-12-04T09:07:44.314Z,96571.88
2022-12-04T09:10:11.019Z,96575.69
2022-12-04T09:12:37.396Z,96573.22
2022-12-04T09:15:04.992Z,96574.31
2022-12-04T09:17:31.322Z,96569.25
2022-12-04T09:20:01.003Z,96568.72
2022-12-04T09:22:40.675Z,96560.91
2022-12-04T09:25:15.423Z,96563.63
2022-12-04T09:27:41.858Z,96557.03
2022-12-04T09:30:09.442Z,96555.97
2022-12-04T09:32:35.915Z,96563.75
2022-12-04T09:35:02.300Z,96559.09
2022-12-04T09:37:28.612Z,96569.25
2022-12-04T09:39:55.245Z,96570.16
2022-12-04T09:42:32.045Z,96560.88
2022-12-04T09:45:03.374Z,96567.97
2022-12-04T09:47:33.218Z,96563.03
2022-12-04T09:50:11.699Z,96561.50
2022-12-04T09:52:38.118Z,96559.56
2022-12-04T09:55:05.233Z,96545.78
2022-12-04T09:57:36.627Z,96545.00
2022-12-04T10:00:05.960Z,96541.88
2022-12-04T10:02:44.508Z,96542.72
2022-12-04T10:05:24.508Z,96546.97
2022-12-04T10:08:02.202Z,96546.56
2022-12-04T10:10:30.502Z,96547.09
2022-12-04T10:13:05.298Z,96547.78
2022-12-04T10:15:50.828Z,96531.53
2022-12-04T10:18:21.427Z,96546.44
2022-12-04T10:20:47.780Z,96549.53
2022-12-04T10:23:14.369Z,96548.41
2022-12-04T10:25:41.683Z,96542.78
2022-12-04T10:28:10.989Z,96545.03
2022-12-04T10:30:41.499Z,96532.09
2022-12-04T10:33:39.069Z,96532.44
2022-12-04T10:36:06.096Z,96518.66
2022-12-04T10:38:40.077Z,96511.50
2022-12-04T10:41:26.703Z,96511.50
2022-12-04T10:43:55.202Z,96513.59
2022-12-04T10:46:21.659Z,96502.81
2022-12-04T10:48:49.486Z,96499.66
2022-12-04T10:51:19.972Z,96497.59
2022-12-04T10:53:49.269Z,96501.56
2022-12-04T10:56:20.346Z,96496.63
2022-12-04T10:58:56.955Z,96489.59
2022-12-04T11:01:23.618Z,96488.59
2022-12-04T11:03:56.464Z,96484.88
2022-12-04T11:06:25.201Z,96478.13
2022-12-04T11:08:52.950Z,96485.38
2022-12-04T11:11:27.287Z,96493.44
2022-12-04T11:14:13.372Z,96482.91
2022-12-04T11:16:48.231Z,96467.00
2022-12-04T11:19:18.977Z,96475.81
2022-12-04T11:21:45.585Z,96471.09
2022-12-04T11:24:20.136Z,96458.91
2022-12-04T11:26:46.775Z,96463.66
2022-12-04T11:29:15.198Z,96446.88
2022-12-04T11:31:41.715Z,96443.63
2022-12-04T11:34:18.198Z,96441.81
2022-12-04T11:36:50.333Z,96436.97
2022-12-04T11:39:18.899Z,96436.91
2022-12-04T11:41:46.233Z,96440.38
2022-12-04T11:44:22.466Z,96431.53
2022-12-04T11:46:56.701Z,96423.34
2022-12-04T11:49:24.374Z,96429.53
2022-12-04T11:52:09.651Z,96439.44
2022-12-04T11:54:49.412Z,96446.56
2022-12-04T11:57:34.655Z,96452.38
2022-12-04T12:00:01.032Z,96450.00
2022-12-04T12:02:46.013Z,96455.56
2022-12-04T12:05:14.528Z,96455.13
2022-12-04T12:08:06.964Z,96450.88
2022-12-04T12:10:44.681Z,96437.72
2022-12-04T12:13:20.689Z,96434.97
2022-12-04T12:15:59.521Z,96421.44
2022-12-04T12:18:49.665Z,96425.78
2022-12-04T12:21:21.217Z,96420.91
2022-12-04T12:23:59.634Z,96417.84
2022-12-04T12:26:34.178Z,96412.13
2022-12-04T12:29:08.845Z,96414.28
2022-12-04T12:31:55.059Z,96412.50
2022-12-04T12:34:30.390Z,96414.97
2022-12-04T12:37:01.035Z,96417.16
2022-12-04T12:39:35.356Z,96406.28
2022-12-04T12:42:01.719Z,96392.19
2022-12-04T12:44:47.036Z,96401.25
2022-12-04T12:47:16.446Z,96402.22
2022-12-04T12:49:50.123Z,96414.19
2022-12-04T12:52:19.293Z,96404.00
2022-12-04T12:54:51.965Z,96401.63
2022-12-04T12:57:19.997Z,96398.38
2022-12-04T12:59:48.572Z,96400.88
2022-12-04T13:02:27.005Z,96407.38
2022-12-04T13:04:55.446Z,96401.19
2022-12-04T13:07:25.145Z,96393.81
2022-12-04T13:09:54.399Z,96399.53
2022-12-04T13:12:22.579Z,96392.03
2022-12-04T13:14:49.382Z,96379.19
2022-12-04T13:17:32.803Z,96392.25
2022-12-04T13:20:04.164Z,96386.38
2022-12-04T13:22:40.358Z,96380.00
2022-12-04T13:25:10.531Z,96384.66
2022-12-04T13:27:36.820Z,96386.69
2022-12-04T13:30:03.135Z,96379.81
2022-12-04T13:32:35.246Z,96374.31
2022-12-04T13:35:01.716Z,96373.41
2022-12-04T13:37:42.373Z,96375.22
2022-12-04T13:40:14.609Z,96374.09
2022-12-04T13:42:41.214Z,96376.91
2022-12-04T13:45:11.047Z,96382.59
2022-12-04T13:47:37.612Z,96381.13
2022-12-04T13:50:19.217Z,96381.47
2022-12-04T13:52:49.331Z,96374.25
2022-12-04T13:55:23.845Z,96374.69
2022-12-04T13:58:00.742Z,96366.50
2022-12-04T14:00:27.237Z,96368.44
2022-12-04T14:02:55.273Z,96357.88
2022-12-04T14:05:55.133Z,96356.91
2022-12-04T14:08:26.106Z,96358.25
2022-12-04T14:10:58.856Z,96365.91
2022-12-04T14:13:28.492Z,96360.31
2022-12-04T14:16:22.193Z,96357.97
2022-12-04T14:19:01.876Z,96365.88
2022-12-04T14:21:45.114Z,96361.91
2022-12-04T14:24:23.685Z,96354.53
2022-12-04T14:29:50.735Z,96361.44
2022-12-04T14:32:22.086Z,96343.22
2022-12-04T14:34:49.245Z,96342.41
2022-12-04T14:37:23.024Z,96338.44
2022-12-04T14:39:49.676Z,96332.81
2022-12-04T14:42:16.020Z,96332.16
2022-12-04T14:44:44.397Z,96330.59
2022-12-04T14:47:15.276Z,96336.41
2022-12-04T14:50:15.140Z,96338.97
2022-12-04T14:52:54.721Z,96335.25
2022-12-04T14:55:25.813Z,96340.75
2022-12-04T14:57:55.169Z,96334.75
2022-12-04T15:00:22.775Z,96325.78
2022-12-04T15:02:51.222Z,96320.53
2022-12-04T15:05:24.494Z,96323.06
2022-12-04T15:07:52.553Z,96338.84
2022-12-04T15:10:48.800Z,96320.78
2022-12-04T15:13:27.718Z,96325.63
2022-12-04T15:15:54.077Z,96333.03
2022-12-04T15:18:20.524Z,96321.50
2022-12-04T15:20:56.246Z,96318.84
2022-12-04T15:23:25.674Z,96318.72
2022-12-04T15:25:53.281Z,96319.53
2022-12-04T15:28:38.168Z,96319.81
2022-12-04T15:31:06.353Z,96314.34
2022-12-04T15:33:35.726Z,96318.00
2022-12-04T15:36:05.486Z,96313.56
2022-12-04T15:38:32.387Z,96320.03
2022-12-04T15:40:59.617Z,96319.06
2022-12-04T15:43:43.371Z,96313.63
2022-12-04T15:46:22.088Z,96311.28
2022-12-04T15:48:50.545Z,96305.81
2022-12-04T15:51:20.194Z,96318.97
2022-12-04T15:53:46.881Z,96330.84
2022-12-04T15:56:17.827Z,96334.16
2022-12-04T15:58:57.426Z,96332.81
2022-12-04T16:01:24.011Z,96336.47
2022-12-04T16:03:53.815Z,96344.16
2022-12-04T16:06:22.020Z,96342.94
2022-12-04T16:08:49.910Z,96347.75
2022-12-04T16:11:20.112Z,96352.13
2022-12-04T16:13:47.529Z,96350.91
2022-12-04T16:16:18.225Z,96358.94
2022-12-04T16:18:45.560Z,96363.81
2022-12-04T16:21:15.436Z,96365.03
2022-12-04T16:23:41.795Z,96371.63
2022-12-04T16:26:15.546Z,96373.56
2022-12-04T16:28:42.212Z,96371.13
2022-12-04T16:31:15.565Z,96385.56
2022-12-04T16:33:42.058Z,96373.94
2022-12-04T16:36:10.361Z,96382.22
2022-12-04T16:38:36.876Z,96374.84
2022-12-04T16:41:06.799Z,96366.84
2022-12-04T16:43:33.192Z,96364.00
2022-12-04T16:46:01.289Z,96373.72
2022-12-04T16:48:29.647Z,96374.25
2022-12-04T16:50:56.003Z,96362.88
2022-12-04T16:53:22.757Z,96362.34
2022-12-04T16:55:50.010Z,96358.41
2022-12-04T16:58:17.088Z,96367.63
2022-12-04T17:00:44.646Z,96364.72
2022-12-04T17:03:16.900Z,96365.84
2022-12-04T17:05:43.219Z,96369.41
2022-12-04T17:08:09.592Z,96368.41
2022-12-04T17:10:35.973Z,96382.50
2022-12-04T17:13:05.386Z,96373.44
2022-12-04T17:15:31.707Z,96377.44
2022-12-04T17:17:58.031Z,96372.28
2022-12-04T17:20:24.396Z,96375.94
2022-12-04T17:22:50.847Z,96376.56
2022-12-04T17:25:17.610Z,96378.00
2022-12-04T17:27:45.014Z,96369.56
2022-12-04T17:30:11.852Z,96368.22
2022-12-04T17:32:38.347Z,96364.59
2022-12-04T17:35:06.084Z,96359.31
2022-12-04T17:37:33.160Z,96363.31
2022-12-04T17:39:59.780Z,96356.38
2022-12-04T17:42:26.109Z,96356.63
2022-12-04T17:44:54.779Z,96356.75
2022-12-04T17:47:21.428Z,96349.75
2022-12-04T17:49:47.743Z,96349.78
2022-12-04T17:52:14.177Z,96350.38
2022-12-04T17:54:40.564Z,96344.03
2022-12-04T17:57:08.871Z,96348.16
2022-12-04T17:59:35.254Z,96342.44
2022-12-04T18:02:01.671Z,96344.66
2022-12-04T18:04:34.135Z,96344.53
2022-12-04T18:07:00.589Z,96349.66
2022-12-04T18:09:31.903Z,96353.13
2022-12-04T18:12:01.409Z,96354.53
2022-12-04T18:14:28.630Z,96348.13
2022-12-04T18:16:58.048Z,96354.09
2022-12-04T18:19:26.198Z,96354.38
2022-12-04T18:21:58.848Z,96356.97
2022-12-04T18:24:26.067Z,96358.41
2022-12-04T18:26:52.956Z,96350.22
2022-12-04T18:29:20.741Z,96352.28
2022-12-04T18:31:48.312Z,96355.94
2022-12-04T18:34:15.161Z,96350.94
2022-12-04T18:36:47.646Z,96344.75
2022-12-04T18:39:15.816Z,96348.75
2022-12-04T18:41:42.788Z,96349.53
2022-12-04T18:44:11.574Z,96355.03
2022-12-04T18:46:38.040Z,96353.53
2022-12-04T18:49:07.903Z,96355.72
2022-12-04T18:51:39.453Z,96358.69
2022-12-04T18:54:08.721Z,96362.19
2022-12-04T18:56:35.479Z,96358.97
2022-12-04T18:59:06.211Z,96359.97
2022-12-04T19:01:32.801Z,96362.19
2022-12-04T19:04:00.569Z,96366.00
2022-12-04T19:06:41.663Z,96368.56
2022-12-04T19:09:09.788Z,96365.59
2022-12-04T19:11:36.553Z,96379.13
2022-12-04T19:14:08.973Z,96368.69
2022-12-04T19:16:43.631Z,96380.72
2022-12-04T19:19:16.681Z,96367.19
2022-12-04T19:21:43.016Z,96378.19
2022-12-04T19:24:10.417Z,96377.97
2022-12-04T19:26:36.801Z,96379.09
2022-12-04T19:29:04.521Z,96381.41
2022-12-04T19:31:33.023Z,96393.09
2022-12-04T19:33:59.603Z,96383.53
2022-12-04T19:36:28.158Z,96381.97
2022-12-04T19:38:57.199Z,96379.00
2022-12-04T19:41:25.690Z,96385.94
2022-12-04T19:43:55.933Z,96391.34
2022-12-04T19:46:25.956Z,96388.53
2022-12-04T19:48:58.197Z,96396.13
2022-12-04T19:51:25.044Z,96399.03
2022-12-04T19:53:51.864Z,96402.06
2022-12-04T19:56:20.451Z,96396.78
2022-12-04T19:58:46.999Z,96397.56
2022-12-04T20:01:17.808Z,96406.47
2022-12-04T20:03:44.433Z,96409.28
2022-12-04T20:06:12.631Z,96411.06
2022-12-04T20:08:39.462Z,96410.34
2022-12-04T20:11:12.174Z,96405.94
2022-12-04T20:13:43.254Z,96408.47
2022-12-04T20:16:13.040Z,96409.88
2022-12-04T20:18:40.046Z,96399.94
2022-12-04T20:21:11.015Z,96404.38
2022-12-04T20:23:40.441Z,96402.53
2022-12-04T20:26:09.456Z,96401.34
2022-12-04T20:28:36.967Z,96397.09
2022-12-04T20:31:13.900Z,96397.63
2022-12-04T20:33:41.187Z,96402.53
2022-12-04T20:36:09.441Z,96401.94
2022-12-04T20:38:36.062Z,96415.03
2022-12-04T20:41:03.588Z,96408.09
2022-12-04T20:43:31.006Z,96399.91
2022-12-04T20:45:57.474Z,96402.56
2022-12-04T20:48:23.991Z,96404.84
2022-12-04T20:50:50.396Z,96409.28
2022-12-04T20:53:17.062Z,96413.25
2022-12-04T20:55:51.809Z,96408.94
2022-12-04T20:58:20.296Z,96407.72
2022-12-04T21:00:52.758Z,96411.06
2022-12-04T21:03:21.264Z,96409.38
2022-12-04T21:05:50.852Z,96417.72
2022-12-04T21:08:37.138Z,96417.09
2022-12-04T21:11:04.546Z,96409.53
2022-12-04T21:13:49.774Z,96422.25
2022-12-04T21:16:18.755Z,96433.56
2022-12-04T21:18:45.098Z,96428.72
2022-12-04T21:21:20.411Z,96433.41
2022-12-04T21:23:46.882Z,96444.09
2022-12-04T21:26:14.336Z,96432.78
2022-12-04T21:28:40.652Z,96445.38
2022-12-04T21:31:07.565Z,96441.94
2022-12-04T21:33:34.118Z,96449.63
2022-12-04T21:36:04.230Z,96442.94
2022-12-04T21:38:34.509Z,96448.50
2022-12-04T21:41:01.395Z,96453.94
2022-12-04T21:43:31.355Z,96451.34
2022-12-04T21:46:09.623Z,96451.41
2022-12-04T21:48:36.432Z,96450.78
2022-12-04T21:51:13.243Z,96457.72
2022-12-04T21:53:54.526Z,96461.44
2022-12-04T21:56:22.435Z,96461.44
2022-12-04T21:58:48.767Z,96468.28
2022-12-04T22:01:17.048Z,96473.56
2022-12-04T22:03:43.919Z,96476.22
2022-12-04T22:06:10.334Z,96488.41
2022-12-04T22:08:37.348Z,96492.31
2022-12-04T22:11:08.126Z,96486.81
2022-12-04T22:13:35.423Z,96502.16
2022-12-04T22:16:05.193Z,96488.38
2022-12-04T22:18:31.949Z,96492.25
2022-12-04T22:20:58.314Z,96493.19
2022-12-04T22:23:24.689Z,96488.44
2022-12-04T22:25:51.095Z,96480.31
2022-12-04T22:28:17.594Z,96477.69
2022-12-04T22:30:43.952Z,96486.75
2022-12-04T22:33:10.284Z,96486.72
2022-12-04T22:35:43.607Z,96493.59
2022-12-04T22:38:09.975Z,96483.25
2022-12-04T22:40:37.321Z,96485.09
2022-12-04T22:43:03.660Z,96491.56
2022-12-04T22:45:29.990Z,96490.31
2022-12-04T22:47:56.424Z,96486.34
2022-12-04T22:50:22.781Z,96484.28
2022-12-04T22:52:49.192Z,96490.31
2022-12-04T22:55:15.526Z,96498.22
2022-12-04T22:57:43.069Z,96497.13
2022-12-04T23:00:09.714Z,96498.78
2022-12-04T23:02:36.230Z,96482.16
2022-12-04T23:05:02.783Z,96490.53
2022-12-04T23:07:29.259Z,96501.41
2022-12-04T23:09:56.152Z,96486.34
2022-12-04T23:12:23.636Z,96487.22
2022-12-04T23:14:49.994Z,96488.47
2022-12-04T23:17:18.025Z,96487.91
2022-12-04T23:19:44.345Z,96494.69
2022-12-04T23:22:10.797Z,96495.81
2022-12-04T23:24:38.558Z,96507.94
2022-12-04T23:27:07.134Z,96506.44
2022-12-04T23:32:32.171Z,96511.25
2022-12-04T23:34:58.550Z,96509.53
2022-12-04T23:37:25.014Z,96510.56
2022-12-04T23:39:51.387Z,96510.66
2022-12-04T23:42:17.699Z,96514.84
2022-12-04T23:44:44.151Z,96519.81
2022-12-04T23:47:10.549Z,96526.47
2022-12-04T23:49:36.906Z,96526.38
2022-12-04T23:52:03.238Z,96527.53
2022-12-04T23:54:34.800Z,96527.84
2022-12-04T23:57:01.388Z,96520.44
2022-12-04T23:59:27.810Z,96520.09
